createdAt,value
2022-08-14T00:02:01.508Z,18.40
2022-08-14T00:04:34.974Z,18.30
2022-08-14T00:07:11.450Z,18.20
2022-08-14T00:09:56.259Z,18.20
2022-08-14T00:12:33.987Z,18.10
2022-08-14T00:15:22.230Z,18.10
2022-08-14T00:17:53.462Z,18.10
2022-08-14T00:20:30.840Z,18.00
2022-08-14T00:23:14.612Z,18.00
2022-08-14T00:25:53.851Z,18.00
2022-08-14T00:28:32.621Z,18.00
2022-08-14T00:31:02.794Z,18.00
2022-08-14T00:33:52.272Z,17.80
2022-08-14T00:36:39.428Z,17.70
2022-08-14T00:39:06.428Z,17.60
2022-08-14T00:41:34.373Z,17.50
2022-08-14T00:44:01.476Z,17.40
2022-08-14T00:46:33.039Z,17.40
2022-08-14T00:49:00.939Z,17.30
2022-08-14T00:51:36.740Z,17.20
2022-08-14T00:54:11.268Z,17.20
2022-08-14T00:56:50.317Z,17.20
2022-08-14T00:59:17.329Z,17.20
2022-08-14T01:01:46.193Z,17.20
2022-08-14T01:04:51.259Z,17.20
2022-08-14T01:07:07.552Z,17.20
2022-08-14T01:09:37.663Z,17.20
2022-08-14T01:12:07.747Z,17.10
2022-08-14T01:14:35.730Z,17.10
2022-08-14T01:17:03.819Z,17.10
2022-08-14T01:19:49.956Z,17.10
2022-08-14T01:22:20.843Z,17.10
2022-08-14T01:24:53.815Z,17.00
2022-08-14T01:27:24.229Z,16.80
2022-08-14T01:30:01.134Z,16.70
2022-08-14T01:32:45.331Z,16.50
2022-08-14T01:36:01.985Z,16.30
2022-08-14T01:38:05.864Z,16.20
2022-08-14T01:40:40.906Z,16.20
2022-08-14T01:43:18.393Z,16.20
2022-08-14T01:45:57.652Z,16.30
2022-08-14T01:48:37.364Z,16.40
2022-08-14T01:51:20.143Z,16.40
2022-08-14T01:53:55.918Z,16.40
2022-08-14T01:56:39.350Z,16.40
2022-08-14T01:59:24.463Z,16.50
2022-08-14T02:02:19.591Z,16.50
2022-08-14T02:04:56.784Z,16.50
2022-08-14T02:07:44.884Z,16.50
2022-08-14T02:10:16.018Z,16.40
2022-08-14T02:12:54.207Z,16.40
2022-08-14T02:15:24.897Z,16.30
2022-08-14T02:17:51.886Z,16.20
2022-08-14T02:20:23.637Z,16.20
2022-08-14T02:22:54.793Z,16.10
2022-08-14T02:25:24.425Z,16.00
2022-08-14T02:28:23.733Z,15.90
2022-08-14T02:30:45.383Z,15.90
2022-08-14T02:33:12.496Z,15.90
2022-08-14T02:35:43.384Z,15.90
2022-08-14T02:38:11.875Z,15.90
2022-08-14T02:41:00.274Z,15.90
2022-08-14T02:43:37.308Z,15.90
2022-08-14T02:46:20.647Z,15.90
2022-08-14T02:49:03.452Z,15.90
2022-08-14T02:51:37.010Z,15.80
2022-08-14T02:54:09.623Z,15.70
2022-08-14T02:57:15.615Z,15.60
2022-08-14T02:59:33.830Z,15.50
2022-08-14T03:02:03.413Z,15.40
2022-08-14T03:04:31.862Z,15.30
2022-08-14T03:07:07.143Z,15.30
2022-08-14T03:10:26.092Z,15.40
2022-08-14T03:12:30.915Z,15.40
2022-08-14T03:15:14.432Z,15.40
2022-08-14T03:17:57.159Z,15.40
2022-08-14T03:20:29.240Z,15.50
2022-08-14T03:23:04.366Z,15.40
2022-08-14T03:25:34.308Z,15.50
2022-08-14T03:28:08.204Z,15.50
2022-08-14T03:30:42.550Z,15.50
2022-08-14T03:33:12.751Z,15.50
2022-08-14T03:36:07.743Z,15.40
2022-08-14T03:39:13.384Z,15.40
2022-08-14T03:41:23.276Z,15.40
2022-08-14T03:43:57.875Z,15.40
2022-08-14T03:46:46.653Z,15.40
2022-08-14T03:49:29.428Z,15.40
2022-08-14T03:52:00.766Z,15.40
2022-08-14T03:54:29.467Z,15.40
2022-08-14T03:57:02.806Z,15.40
2022-08-14T03:59:35.256Z,15.40
2022-08-14T04:02:04.579Z,15.40
2022-08-14T04:04:38.121Z,15.50
2022-08-14T04:07:06.520Z,15.50
2022-08-14T04:09:34.111Z,15.50
2022-08-14T04:12:02.110Z,15.50
2022-08-14T04:14:37.314Z,15.50
2022-08-14T04:17:05.302Z,15.50
2022-08-14T04:19:37.993Z,15.50
2022-08-14T04:22:06.252Z,15.50
2022-08-14T04:24:37.864Z,15.50
2022-08-14T04:27:11.187Z,15.50
2022-08-14T04:29:40.972Z,15.50
2022-08-14T04:33:02.615Z,15.50
2022-08-14T04:34:57.992Z,15.50
2022-08-14T04:37:45.081Z,15.50
2022-08-14T04:40:32.665Z,15.40
2022-08-14T04:43:20.824Z,15.40
2022-08-14T04:45:51.308Z,15.40
2022-08-14T04:48:39.366Z,15.40
2022-08-14T04:51:12.536Z,15.40
2022-08-14T04:53:44.777Z,15.40
2022-08-14T04:56:31.318Z,15.40
2022-08-14T04:59:10.135Z,15.50
2022-08-14T05:01:48.033Z,15.50
2022-08-14T05:04:19.947Z,15.60
2022-08-14T05:06:59.650Z,15.60
2022-08-14T05:09:29.193Z,15.70
2022-08-14T05:12:54.873Z,15.70
2022-08-14T05:14:53.448Z,15.70
2022-08-14T05:17:24.645Z,15.80
2022-08-14T05:21:10.784Z,15.80
2022-08-14T05:22:46.294Z,16.00
2022-08-14T05:25:13.462Z,16.10
2022-08-14T05:27:42.486Z,16.20
2022-08-14T05:30:10.930Z,16.30
2022-08-14T05:32:43.785Z,16.40
2022-08-14T05:35:13.850Z,16.60
2022-08-14T05:37:46.175Z,16.70
2022-08-14T05:40:13.424Z,16.80
2022-08-14T05:42:40.399Z,17.00
2022-08-14T05:45:11.234Z,17.10
2022-08-14T05:47:41.957Z,17.20
2022-08-14T05:50:17.303Z,17.40
2022-08-14T05:52:48.614Z,17.50
2022-08-14T05:55:16.723Z,17.60
2022-08-14T05:57:57.919Z,17.80
2022-08-14T06:00:40.490Z,18.00
2022-08-14T06:03:11.412Z,18.20
2022-08-14T06:05:39.262Z,18.40
2022-08-14T06:08:35.630Z,18.60
2022-08-14T06:11:07.366Z,18.80
2022-08-14T06:13:45.205Z,18.90
2022-08-14T06:16:17.824Z,19.10
2022-08-14T06:18:51.728Z,19.30
2022-08-14T06:21:23.275Z,19.50
2022-08-14T06:23:51.396Z,19.70
2022-08-14T06:26:20.429Z,19.90
2022-08-14T06:28:48.378Z,20.10
2022-08-14T06:31:20.919Z,20.30
2022-08-14T06:35:04.399Z,20.50
2022-08-14T06:36:38.020Z,20.70
2022-08-14T06:39:08.166Z,21.00
2022-08-14T06:41:58.059Z,21.20
2022-08-14T06:44:32.520Z,21.40
2022-08-14T06:47:02.626Z,21.70
2022-08-14T06:49:30.207Z,22.00
2022-08-14T06:51:57.744Z,22.30
2022-08-14T06:54:31.769Z,22.60
2022-08-14T06:56:59.128Z,23.00
2022-08-14T06:59:26.557Z,23.60
2022-08-14T07:02:13.278Z,24.40
2022-08-14T07:04:59.363Z,25.70
2022-08-14T07:07:28.629Z,27.50
2022-08-14T07:09:55.865Z,29.30
2022-08-14T07:12:52.131Z,30.40
2022-08-14T07:15:11.134Z,30.70
2022-08-14T07:17:52.081Z,30.20
2022-08-14T07:20:20.546Z,29.70
2022-08-14T07:23:07.363Z,29.30
2022-08-14T07:25:40.264Z,29.50
2022-08-14T07:28:20.452Z,29.70
2022-08-14T07:30:51.531Z,29.40
2022-08-14T07:33:29.316Z,29.00
2022-08-14T07:36:00.594Z,28.90
2022-08-14T07:38:33.545Z,28.60
2022-08-14T07:41:06.839Z,28.10
2022-08-14T07:43:40.749Z,27.60
2022-08-14T07:46:07.872Z,27.10
2022-08-14T07:48:40.175Z,27.00
2022-08-14T07:51:11.109Z,26.80
2022-08-14T07:53:41.158Z,26.70
2022-08-14T07:56:44.140Z,26.60
2022-08-14T07:58:58.773Z,26.50
2022-08-14T08:01:29.987Z,26.40
2022-08-14T08:04:01.714Z,26.50
2022-08-14T08:06:30.878Z,27.30
2022-08-14T08:09:02.960Z,28.10
2022-08-14T08:11:37.325Z,28.40
2022-08-14T08:14:10.484Z,28.60
2022-08-14T08:16:43.682Z,28.60
2022-08-14T08:19:12.878Z,28.40
2022-08-14T08:21:43.777Z,28.30
2022-08-14T08:24:14.986Z,28.30
2022-08-14T08:26:46.054Z,28.20
2022-08-14T08:29:25.058Z,28.00
2022-08-14T08:32:01.687Z,27.90
2022-08-14T08:34:46.050Z,27.90
2022-08-14T08:37:14.704Z,27.80
2022-08-14T08:40:02.513Z,27.80
2022-08-14T08:42:38.850Z,27.90
2022-08-14T08:45:12.270Z,27.90
2022-08-14T08:47:43.175Z,28.00
2022-08-14T08:53:05.275Z,27.90
2022-08-14T08:55:44.239Z,27.90
2022-08-14T08:58:20.106Z,27.90
2022-08-14T09:00:55.355Z,27.90
2022-08-14T09:03:28.011Z,28.00
2022-08-14T09:06:03.886Z,28.10
2022-08-14T09:08:34.682Z,28.30
2022-08-14T09:11:19.091Z,28.50
2022-08-14T09:13:51.556Z,28.90
2022-08-14T09:16:25.097Z,29.10
2022-08-14T09:18:53.532Z,29.20
2022-08-14T09:21:24.191Z,29.20
2022-08-14T09:24:29.165Z,29.10
2022-08-14T09:26:49.251Z,29.20
2022-08-14T09:29:20.059Z,29.30
2022-08-14T09:31:58.865Z,29.40
2022-08-14T09:35:24.237Z,29.60
2022-08-14T09:38:37.770Z,29.60
2022-08-14T09:42:20.903Z,29.60
2022-08-14T09:45:15.599Z,29.70
2022-08-14T09:47:46.485Z,29.80
2022-08-14T09:50:18.994Z,30.10
2022-08-14T09:52:57.858Z,30.70
2022-08-14T09:55:28.049Z,31.50
2022-08-14T09:58:19.383Z,32.20
2022-08-14T10:01:00.626Z,32.90
2022-08-14T10:03:34.711Z,33.50
2022-08-14T10:06:15.749Z,33.80
2022-08-14T10:08:51.912Z,33.90
2022-08-14T10:11:35.069Z,34.10
2022-08-14T10:14:29.121Z,34.40
2022-08-14T10:17:04.789Z,34.70
2022-08-14T10:19:35.847Z,35.00
2022-08-14T10:23:12.612Z,35.10
2022-08-14T10:24:56.279Z,35.40
2022-08-14T10:27:27.179Z,35.80
2022-08-14T10:30:00.724Z,36.00
2022-08-14T10:32:39.956Z,36.30
2022-08-14T10:35:14.943Z,36.60
2022-08-14T10:37:50.171Z,36.60
2022-08-14T10:40:37.677Z,36.90
2022-08-14T10:43:23.120Z,37.20
2022-08-14T10:46:22.041Z,37.30
2022-08-14T10:49:04.056Z,37.30
2022-08-14T10:51:35.368Z,37.00
2022-08-14T10:54:16.271Z,36.70
2022-08-14T10:57:10.435Z,36.50
2022-08-14T10:59:55.614Z,36.50
2022-08-14T11:02:44.704Z,36.60
2022-08-14T11:05:20.615Z,37.00
2022-08-14T11:08:00.838Z,37.10
2022-08-14T11:10:46.269Z,37.40
2022-08-14T11:13:27.367Z,37.30
2022-08-14T11:16:00.630Z,37.10
2022-08-14T11:18:35.859Z,36.80
2022-08-14T11:21:08.248Z,36.60
2022-08-14T11:23:41.108Z,36.30
2022-08-14T11:26:13.739Z,36.20
2022-08-14T11:28:48.836Z,36.20
2022-08-14T11:31:23.815Z,36.00
2022-08-14T11:33:58.398Z,35.60
2022-08-14T11:36:35.108Z,35.60
2022-08-14T11:39:02.660Z,35.50
2022-08-14T11:41:39.184Z,35.90
2022-08-14T11:44:45.910Z,36.30
2022-08-14T11:47:06.978Z,36.50
2022-08-14T11:49:34.882Z,36.70
2022-08-14T11:52:02.059Z,36.80
2022-08-14T11:54:30.729Z,36.50
2022-08-14T11:57:02.457Z,36.20
2022-08-14T11:59:33.758Z,36.30
2022-08-14T12:02:39.102Z,36.70
2022-08-14T12:05:09.295Z,37.20
2022-08-14T12:07:36.850Z,37.50
2022-08-14T12:10:25.460Z,37.60
2022-08-14T12:12:56.412Z,37.90
2022-08-14T12:15:33.129Z,38.20
2022-08-14T12:18:01.228Z,37.70
2022-08-14T12:20:45.562Z,37.30
2022-08-14T12:23:25.702Z,37.40
2022-08-14T12:26:39.302Z,37.20
2022-08-14T12:29:14.422Z,36.90
2022-08-14T12:31:47.446Z,36.60
2022-08-14T12:34:22.854Z,36.50
2022-08-14T12:37:07.037Z,36.50
2022-08-14T12:39:40.219Z,36.70
2022-08-14T12:42:08.003Z,36.50
2022-08-14T12:44:42.949Z,36.30
2022-08-14T12:47:17.748Z,36.20
2022-08-14T12:49:57.570Z,35.90
2022-08-14T12:52:47.526Z,35.70
2022-08-14T12:55:32.624Z,35.30
2022-08-14T12:58:35.030Z,35.70
2022-08-14T13:01:17.019Z,35.50
2022-08-14T13:03:48.192Z,35.10
2022-08-14T13:06:20.472Z,35.10
2022-08-14T13:08:53.036Z,35.20
2022-08-14T13:11:23.756Z,35.20
2022-08-14T13:13:58.533Z,35.20
2022-08-14T13:16:37.808Z,35.40
2022-08-14T13:19:16.034Z,35.50
2022-08-14T13:22:05.451Z,35.60
2022-08-14T13:24:34.879Z,35.40
2022-08-14T13:27:04.885Z,35.40
2022-08-14T13:29:46.629Z,35.40
2022-08-14T13:32:15.031Z,35.50
2022-08-14T13:34:45.308Z,35.60
2022-08-14T13:37:17.485Z,35.50
2022-08-14T13:39:56.168Z,35.40
2022-08-14T13:42:30.123Z,35.30
2022-08-14T13:45:01.454Z,35.30
2022-08-14T13:47:32.414Z,35.10
2022-08-14T13:50:04.648Z,34.70
2022-08-14T13:52:55.439Z,34.20
2022-08-14T13:55:29.428Z,34.10
2022-08-14T13:58:05.015Z,33.90
2022-08-14T14:00:52.109Z,33.70
2022-08-14T14:03:25.995Z,34.00
2022-08-14T14:05:58.157Z,34.20
2022-08-14T14:08:46.905Z,34.40
2022-08-14T14:11:16.367Z,34.40
2022-08-14T14:13:45.965Z,34.40
2022-08-14T14:16:26.047Z,34.20
2022-08-14T14:19:06.082Z,34.10
2022-08-14T14:21:37.147Z,33.90
2022-08-14T14:24:06.150Z,33.80
2022-08-14T14:26:36.087Z,33.70
2022-08-14T14:29:07.563Z,33.50
2022-08-14T14:31:38.975Z,33.30
2022-08-14T14:34:29.408Z,33.00
2022-08-14T14:37:03.040Z,32.90
2022-08-14T14:39:37.726Z,32.90
2022-08-14T14:42:29.437Z,32.70
2022-08-14T14:45:15.380Z,32.60
2022-08-14T14:47:59.444Z,32.70
2022-08-14T14:50:26.747Z,32.70
2022-08-14T14:53:13.098Z,32.60
2022-08-14T14:55:59.610Z,32.40
2022-08-14T14:58:30.925Z,32.30
2022-08-14T15:01:08.475Z,32.40
2022-08-14T15:03:44.050Z,32.40
2022-08-14T15:06:12.739Z,32.50
2022-08-14T15:08:56.420Z,32.60
2022-08-14T15:11:26.271Z,32.70
2022-08-14T15:13:57.878Z,32.80
2022-08-14T15:16:24.988Z,32.80
2022-08-14T15:18:52.829Z,32.80
2022-08-14T15:21:20.220Z,32.70
2022-08-14T15:23:48.138Z,32.80
2022-08-14T15:26:24.230Z,32.80
2022-08-14T15:29:06.133Z,32.80
2022-08-14T15:31:36.278Z,32.70
2022-08-14T15:34:44.257Z,32.60
2022-08-14T15:36:58.853Z,32.60
2022-08-14T15:39:29.304Z,32.60
2022-08-14T15:42:01.986Z,32.60
2022-08-14T15:44:34.237Z,32.60
2022-08-14T15:47:09.331Z,32.50
2022-08-14T15:49:38.025Z,32.30
2022-08-14T15:52:08.172Z,32.00
2022-08-14T15:54:37.990Z,32.00
2022-08-14T15:57:09.425Z,31.90
2022-08-14T15:59:58.530Z,31.90
2022-08-14T16:02:30.415Z,31.90
2022-08-14T16:04:57.437Z,31.90
2022-08-14T16:07:27.324Z,31.80
2022-08-14T16:10:25.320Z,31.90
2022-08-14T16:12:54.687Z,32.10
2022-08-14T16:15:23.390Z,32.20
2022-08-14T16:17:52.934Z,32.20
2022-08-14T16:20:42.467Z,32.10
2022-08-14T16:23:12.411Z,32.10
2022-08-14T16:25:44.837Z,32.10
2022-08-14T16:28:26.953Z,32.10
2022-08-14T16:30:54.905Z,32.00
2022-08-14T16:33:56.686Z,32.00
2022-08-14T16:36:30.843Z,32.00
2022-08-14T16:39:06.327Z,32.00
2022-08-14T16:41:33.357Z,32.10
2022-08-14T16:44:31.385Z,32.10
2022-08-14T16:47:03.847Z,32.20
2022-08-14T16:50:02.586Z,32.10
2022-08-14T16:52:25.666Z,32.20
2022-08-14T16:55:09.187Z,32.20
2022-08-14T16:57:58.552Z,32.10
2022-08-14T17:00:43.765Z,31.90
2022-08-14T17:03:13.088Z,31.90
2022-08-14T17:05:43.324Z,31.90
2022-08-14T17:08:28.448Z,32.00
2022-08-14T17:11:09.687Z,32.10
2022-08-14T17:13:59.591Z,32.10
2022-08-14T17:16:27.951Z,32.10
2022-08-14T17:19:00.486Z,31.90
2022-08-14T17:21:40.933Z,31.70
2022-08-14T17:24:56.309Z,31.60
2022-08-14T17:27:04.265Z,31.40
2022-08-14T17:29:44.645Z,31.20
2022-08-14T17:32:29.750Z,31.00
2022-08-14T17:35:16.537Z,30.90
2022-08-14T17:37:55.451Z,30.70
2022-08-14T17:40:25.956Z,30.70
2022-08-14T17:43:02.135Z,30.60
2022-08-14T17:45:41.382Z,30.50
2022-08-14T17:49:15.718Z,30.40
2022-08-14T17:51:23.831Z,30.30
2022-08-14T17:54:02.509Z,30.20
2022-08-14T17:56:32.848Z,30.10
2022-08-14T17:59:06.808Z,30.00
2022-08-14T18:01:40.782Z,29.90
2022-08-14T18:04:27.922Z,29.90
2022-08-14T18:07:09.017Z,29.80
2022-08-14T18:09:57.027Z,29.70
2022-08-14T18:12:41.109Z,29.50
2022-08-14T18:15:17.449Z,29.30
2022-08-14T18:17:53.277Z,29.10
2022-08-14T18:21:39.665Z,28.90
2022-08-14T18:23:13.902Z,28.80
2022-08-14T18:25:51.590Z,28.60
2022-08-14T18:28:51.871Z,28.40
2022-08-14T18:31:42.104Z,28.30
2022-08-14T18:34:31.161Z,28.30
2022-08-14T18:37:16.535Z,28.20
2022-08-14T18:40:03.541Z,28.10
2022-08-14T18:42:34.885Z,28.00
2022-08-14T18:45:02.270Z,28.10
2022-08-14T18:50:32.242Z,28.00
2022-08-14T18:53:11.114Z,28.00
2022-08-14T18:55:53.223Z,27.90
2022-08-14T18:58:27.537Z,27.80
2022-08-14T19:01:01.155Z,27.70
2022-08-14T19:03:37.192Z,27.70
2022-08-14T19:06:09.625Z,27.60
2022-08-14T19:08:46.717Z,27.50
2022-08-14T19:11:32.505Z,27.60
2022-08-14T19:14:05.026Z,27.60
2022-08-14T19:16:36.758Z,27.60
2022-08-14T19:19:08.599Z,27.60
2022-08-14T19:21:43.745Z,27.50
2022-08-14T19:24:43.619Z,27.50
2022-08-14T19:27:23.542Z,27.50
2022-08-14T19:30:20.030Z,27.40
2022-08-14T19:32:57.851Z,27.40
2022-08-14T19:35:49.888Z,27.30
2022-08-14T19:38:44.327Z,27.30
2022-08-14T19:41:22.237Z,27.20
2022-08-14T19:43:56.662Z,27.20
2022-08-14T19:46:39.051Z,27.20
2022-08-14T19:49:23.224Z,27.10
2022-08-14T19:52:03.298Z,27.00
2022-08-14T19:54:36.726Z,26.90
2022-08-14T19:57:04.654Z,26.90
2022-08-14T19:59:57.097Z,26.90
2022-08-14T20:02:30.298Z,26.80
2022-08-14T20:04:59.529Z,26.80
2022-08-14T20:08:00.428Z,26.70
2022-08-14T20:11:06.403Z,26.60
2022-08-14T20:13:15.092Z,26.60
2022-08-14T20:15:50.972Z,26.50
2022-08-14T20:18:49.157Z,26.40
2022-08-14T20:21:13.785Z,26.40
2022-08-14T20:23:41.920Z,26.30
2022-08-14T20:26:31.441Z,26.30
2022-08-14T20:29:05.123Z,26.20
2022-08-14T20:31:37.366Z,26.10
2022-08-14T20:34:19.266Z,26.10
2022-08-14T20:37:22.712Z,26.00
2022-08-14T20:39:53.573Z,25.90
2022-08-14T20:42:43.881Z,25.90
2022-08-14T20:45:19.727Z,25.90
2022-08-14T20:47:56.821Z,25.90
2022-08-14T20:50:32.698Z,25.90
2022-08-14T20:53:05.715Z,25.90
2022-08-14T20:55:41.559Z,25.90
2022-08-14T20:58:44.780Z,25.80
2022-08-14T21:01:18.657Z,25.80
2022-08-14T21:03:57.342Z,25.80
2022-08-14T21:07:22.841Z,25.70
2022-08-14T21:10:03.201Z,25.70
2022-08-14T21:12:33.553Z,25.70
2022-08-14T21:15:05.017Z,25.70
2022-08-14T21:17:41.521Z,25.70
2022-08-14T21:20:26.345Z,25.70
2022-08-14T21:23:00.154Z,25.60
2022-08-14T21:25:31.359Z,25.60
2022-08-14T21:28:04.312Z,25.60
2022-08-14T21:30:47.120Z,25.60
2022-08-14T21:33:21.471Z,25.60
2022-08-14T21:35:54.892Z,25.60
2022-08-14T21:38:33.616Z,25.50
2022-08-14T21:41:43.292Z,25.40
2022-08-14T21:44:18.227Z,25.40
2022-08-14T21:46:53.401Z,25.40
2022-08-14T21:49:25.569Z,25.30
2022-08-14T21:52:50.282Z,25.30
2022-08-14T21:54:55.063Z,25.20
2022-08-14T21:57:56.143Z,25.20
2022-08-14T22:00:35.945Z,25.10
2022-08-14T22:03:14.250Z,25.10
2022-08-14T22:05:42.742Z,25.00
2022-08-14T22:08:14.063Z,25.00
2022-08-14T22:10:46.555Z,24.90
2022-08-14T22:13:17.602Z,24.90
2022-08-14T22:15:59.660Z,24.90
2022-08-14T22:18:30.050Z,24.80
2022-08-14T22:20:57.412Z,24.70
2022-08-14T22:23:26.107Z,24.60
2022-08-14T22:25:55.352Z,24.60
2022-08-14T22:28:33.276Z,24.50
2022-08-14T22:31:22.220Z,24.40
2022-08-14T22:33:57.851Z,24.40
2022-08-14T22:36:45.408Z,24.30
2022-08-14T22:39:12.651Z,24.30
2022-08-14T22:41:43.163Z,24.20
2022-08-14T22:44:17.922Z,24.10
2022-08-14T22:46:48.021Z,24.00
2022-08-14T22:50:32.596Z,24.00
2022-08-14T22:52:19.128Z,23.90
2022-08-14T22:54:56.258Z,23.90
2022-08-14T22:57:27.298Z,23.80
2022-08-14T23:00:13.977Z,23.80
2022-08-14T23:02:42.298Z,23.70
2022-08-14T23:05:12.941Z,23.60
2022-08-14T23:08:56.851Z,23.50
2022-08-14T23:10:32.492Z,23.30
2022-08-14T23:13:03.629Z,23.20
2022-08-14T23:15:34.463Z,23.10
2022-08-14T23:18:13.055Z,23.00
2022-08-14T23:20:44.365Z,22.80
2022-08-14T23:23:22.701Z,22.80
2022-08-14T23:26:00.145Z,22.70
2022-08-14T23:28:32.778Z,22.70
2022-08-14T23:31:02.914Z,22.60
2022-08-14T23:33:34.772Z,22.60
2022-08-14T23:36:31.964Z,22.50
2022-08-14T23:38:53.599Z,22.50
2022-08-14T23:41:21.509Z,22.50
2022-08-14T23:43:54.707Z,22.40
2022-08-14T23:46:24.000Z,22.40
2022-08-14T23:49:03.053Z,22.30
2022-08-14T23:51:36.365Z,22.30
2022-08-14T23:54:05.735Z,22.20
2022-08-14T23:57:00.240Z,22.20
2022-08-14T23:59:31.574Z,22.20
